Fort Myers, FL (33913)

8:49 PM EDT on August 29, 2016 (GMT -0400)
St Moritz | | Change Station

Elev 21 ft 26.48 °N, 81.79 °W | Updated 13 seconds ago

Partly Cloudy
Partly Cloudy
80.1 °F
Feels Like 81 °F
N
3.4
Wind Variable Wind from ENE
Gusts 4.9 mph

Today
High -- | Low -- °F
--% Chance of Precip.
Yesterday
High -- | Low -- °F
Precip. -- in
Pressure 29.87 in
Visibility 10.0 miles
Clouds Few 4500 ft
Heat Index 81 °F
Dew Point 60 °F
Humidity 51%
Rainfall 0.24 in
Snow Depth Not available.
7:05 AM 7:49 PM
Waning Crescent, 6% visible
METAR KRSW 292353Z COR 06006KT 10SM FEW045 27/24 A2988 RMK AO2 SLP115 60013 T02720239 10328 20256 51006
Pressure 29.87 in
Visibility 10.0 miles
Clouds Few 4500 ft
Heat Index 81 °F
Dew Point 60 °F
Humidity 51%
Rainfall 0.24 in
Snow Depth Not available.
7:05 AM 7:49 PM
Waning Crescent, 6% visible
METAR KRSW 292353Z COR 06006KT 10SM FEW045 27/24 A2988 RMK AO2 SLP115 60013 T02720239 10328 20256 51006
Tropical Depression Nine was centered about 170 miles west-southwest of Key West, Florida, as of late Monday morning. The depression may struggle a bit in the southern Gulf of Mexico before finally making a Gulf Coast landfall later this week with soaking rain and gusty winds.

This latest system was designated a tropical depression Sunday after a Hurricane Hunter reconnaissance mission finally found a sufficiently organized low-pressure center with collocated shower and thunderstorm activity.

10-Day Weather Forecast

Almanac

Astronomy

Aug. 29, 2016 Rise Set
Actual Time
Civil Twilight
Nautical Twilight
Astronomical Twilight
Moon
Length of Visible Light
Length of Day
Tomorrow will be .
, % of the Moon is Illuminated

Today's Extremes

State Highs State Lows

Community

WunderPhotos

Upload Photos

1,935,707 photos uploaded!

WunderBlog® & News

Nearby

Air Quality

  Air Quality AQ Index Pollutant
Not available.

Snow Depth

Station Depth Elevation

Earthquake Activity

City Distance Mag. Time & Date
Minimum magnitude displayed is 2.5.

Coastal Water Temperatures

Place Temperature

Stations

Nearby Weather Stations

Station Location Temp. Windchill Dew Point Humidity Wind Precip. Elev Updated Type
                   

Watches & Warnings

There are currently no watches in effect.